Time;durP1;ratioP1;P1;durP2;ratioP2;P2;SDS_P1;SDS_P2;PMS_P1;PMS_P2;Temp;Humidity;BMP_temperature;BMP_pressure;BME280_temperature;BME280_humidity;BME280_pressure;Samples;Min_cycle;Max_cycle;Signal;HPM_P1;HPM_P2
2022/01/27 00:04:03;;;;;;;44.70;19.92;;;0.40;99.90;;;;;;1906918;75;21117;-72
2022/01/27 00:06:19;;;;;;;38.02;19.42;;;0.40;99.90;;;;;;1903524;74;21490;-72
2022/01/27 00:08:54;;;;;;;47.65;20.35;;;0.40;99.90;;;;;;1905318;75;21431;-71
2022/01/27 00:11:16;;;;;;;42.35;20.32;;;0.40;99.90;;;;;;1908294;72;21097;-73
2022/01/27 00:13:57;;;;;;;51.37;20.45;;;0.40;99.90;;;;;;1885051;74;21056;-72
2022/01/27 00:16:20;;;;;;;46.85;21.48;;;0.40;99.90;;;;;;1903688;75;21190;-72
2022/01/27 00:18:47;;;;;;;54.25;22.50;;;0.50;99.90;;;;;;1903913;74;21534;-72
2022/01/27 00:21:15;;;;;;;49.58;22.13;;;0.50;99.90;;;;;;1909397;75;21080;-72
2022/01/27 00:23:45;;;;;;;41.63;22.25;;;0.50;99.90;;;;;;1903031;75;21066;-72
2022/01/27 00:26:15;;;;;;;54.40;22.75;;;0.50;99.90;;;;;;1903029;73;21461;-72
2022/01/27 00:28:42;;;;;;;;;;;0.50;99.90;;;;;;1910090;75;21211;-71
2022/01/27 00:31:09;;;;;;;39.73;20.12;;;0.50;99.90;;;;;;1905902;75;20190;-72
2022/01/27 00:33:36;;;;;;;41.98;19.57;;;0.50;99.90;;;;;;1913033;75;21518;-71
2022/01/27 00:36:04;;;;;;;34.45;18.90;;;0.50;99.90;;;;;;1906430;75;21120;-71
2022/01/27 00:38:31;;;;;;;43.50;20.25;;;0.50;99.90;;;;;;1907902;75;21024;-71
2022/01/27 00:40:59;;;;;;;33.78;19.07;;;0.50;99.90;;;;;;1906756;75;21095;-71
2022/01/27 00:43:26;;;;;;;41.73;20.85;;;0.50;99.90;;;;;;1908985;75;21055;-71
2022/01/27 00:45:54;;;;;;;43.25;20.45;;;0.50;99.90;;;;;;1905106;75;21073;-71
2022/01/27 00:48:21;;;;;;;50.78;20.92;;;0.40;99.90;;;;;;1903822;75;21404;-71
2022/01/27 00:50:54;;;;;;;38.67;19.52;;;0.50;99.90;;;;;;1908576;75;21106;-72
2022/01/27 00:53:28;;;;;;;70.40;21.35;;;0.40;99.90;;;;;;1902379;75;21096;-72
2022/01/27 00:55:46;;;;;;;44.40;20.23;;;0.50;99.90;;;;;;1909244;74;21154;-72
2022/01/27 01:00:52;;;;;;;39.80;20.00;;;0.40;99.90;;;;;;1906849;75;21056;-72
2022/01/27 01:03:25;;;;;;;37.25;19.37;;;0.50;99.90;;;;;;1910133;75;21152;-72
2022/01/27 01:16:02;;;;;;;43.45;20.65;;;0.50;99.90;;;;;;1910952;75;21058;-72
2022/01/27 01:34:26;;;;;;;45.35;20.23;;;0.40;99.90;;;;;;1904385;73;21155;-72
2022/01/27 01:36:57;;;;;;;43.48;20.70;;;0.40;99.90;;;;;;1912412;75;21098;-72
2022/01/27 01:39:27;;;;;;;40.88;20.17;;;0.40;99.90;;;;;;1911875;75;21150;-71
2022/01/27 01:41:55;;;;;;;46.75;23.30;;;0.20;99.90;;;;;;1907985;74;21118;-72
2022/01/27 01:44:23;;;;;;;41.05;21.30;;;0.20;99.90;;;;;;1904480;75;21145;-71
2022/01/27 01:46:50;;;;;;;44.13;20.20;;;0.30;99.90;;;;;;1904022;75;21110;-72
2022/01/27 01:49:17;;;;;;;49.08;21.73;;;0.40;99.90;;;;;;1912577;75;21084;-71
2022/01/27 01:51:45;;;;;;;37.13;19.85;;;0.50;99.90;;;;;;1906683;75;21032;-71
2022/01/27 01:54:12;;;;;;;43.52;19.00;;;0.50;99.90;;;;;;1903095;75;21055;-71
2022/01/27 01:56:41;;;;;;;50.48;20.50;;;0.60;99.90;;;;;;1908236;75;21054;-71
2022/01/27 01:59:08;;;;;;;40.35;21.27;;;0.60;99.90;;;;;;1905100;75;21055;-72
2022/01/27 02:01:36;;;;;;;46.13;20.88;;;0.50;99.90;;;;;;1907193;75;21199;-72
2022/01/27 02:04:07;;;;;;;41.53;21.30;;;0.50;99.90;;;;;;1909261;75;21465;-71
2022/01/27 02:06:39;;;;;;;45.30;21.82;;;0.50;99.90;;;;;;1909486;74;21145;-72
2022/01/27 02:20:07;;;;;;;49.30;22.52;;;0.30;99.90;;;;;;1906247;75;21138;-72
2022/01/27 02:22:34;;;;;;;48.90;22.90;;;0.10;99.90;;;;;;1908707;75;21040;-72
2022/01/27 02:25:02;;;;;;;51.55;22.37;;;0.10;99.90;;;;;;1910064;75;21155;-72
2022/01/27 02:27:29;;;;;;;59.42;24.57;;;0.10;99.90;;;;;;1905897;75;21513;-72
2022/01/27 02:29:56;;;;;;;61.35;23.70;;;0.10;99.90;;;;;;1874883;76;21134;-71
2022/01/27 02:32:24;;;;;;;52.62;22.50;;;0.20;99.90;;;;;;1879873;75;21046;-71
2022/01/27 02:34:52;;;;;;;55.38;23.10;;;0.30;99.90;;;;;;1912852;75;21042;-72
2022/01/27 02:37:19;;;;;;;54.08;24.90;;;0.30;99.90;;;;;;1909007;75;21524;-72
2022/01/27 02:39:46;;;;;;;50.55;24.27;;;0.30;99.90;;;;;;1908505;75;21128;-71
2022/01/27 02:42:28;;;;;;;55.03;24.43;;;0.40;99.90;;;;;;1908253;75;21475;-72
2022/01/27 02:44:59;;;;;;;53.33;23.98;;;0.40;99.90;;;;;;1906638;75;21186;-72
2022/01/27 02:47:26;;;;;;;59.38;25.50;;;0.50;99.90;;;;;;1876848;75;21500;-72
2022/01/27 02:49:53;;;;;;;52.80;24.32;;;0.50;99.90;;;;;;1905694;75;21153;-72
2022/01/27 02:52:21;;;;;;;48.30;22.87;;;0.50;99.90;;;;;;1909365;75;21181;-72
2022/01/27 02:54:48;;;;;;;60.65;24.75;;;0.50;99.90;;;;;;1912506;75;21519;-72
2022/01/27 02:57:15;;;;;;;48.68;24.77;;;0.30;99.90;;;;;;1908568;75;21190;-71
2022/01/27 02:59:42;;;;;;;54.38;25.15;;;0.30;99.90;;;;;;1908822;75;21041;-71
2022/01/27 03:02:10;;;;;;;49.18;23.90;;;0.20;99.90;;;;;;1908750;75;21130;-71
2022/01/27 03:04:37;;;;;;;46.73;22.37;;;0.30;99.90;;;;;;1904237;75;21132;-71
2022/01/27 03:07:05;;;;;;;51.28;24.12;;;0.40;99.90;;;;;;1902955;75;21070;-72
2022/01/27 03:09:34;;;;;;;48.30;23.52;;;0.30;99.90;;;;;;1907646;75;21114;-72
2022/01/27 03:12:06;;;;;;;49.95;23.62;;;0.30;99.90;;;;;;1903293;75;21141;-72
2022/01/27 03:14:33;;;;;;;53.20;25.37;;;0.30;99.90;;;;;;1906056;73;21109;-72
2022/01/27 03:17:01;;;;;;;52.20;23.02;;;0.40;99.90;;;;;;1908211;75;21153;-72
2022/01/27 03:19:28;;;;;;;56.92;24.47;;;0.50;99.90;;;;;;1903035;75;21129;-73
2022/01/27 03:21:56;;;;;;;48.83;23.15;;;0.50;99.90;;;;;;1903057;75;21031;-71
2022/01/27 03:24:24;;;;;;;56.18;23.18;;;0.50;99.90;;;;;;1905097;75;21443;-71
2022/01/27 03:26:52;;;;;;;51.73;23.45;;;0.60;99.90;;;;;;1905059;75;21092;-71
2022/01/27 03:29:21;;;;;;;41.90;22.67;;;0.60;99.90;;;;;;1903621;75;21036;-71
2022/01/27 03:31:48;;;;;;;53.98;22.67;;;0.60;99.90;;;;;;1903776;75;21121;-71
2022/01/27 03:34:16;;;;;;;47.95;23.22;;;0.60;99.90;;;;;;1907391;75;21135;-71
2022/01/27 03:36:43;;;;;;;56.88;22.42;;;0.60;99.90;;;;;;1881031;75;21062;-72
2022/01/27 03:39:11;;;;;;;43.30;22.98;;;0.70;99.90;;;;;;1908680;75;21112;-71
2022/01/27 03:41:40;;;;;;;39.55;21.07;;;0.70;99.90;;;;;;1908220;75;21150;-71
2022/01/27 03:44:07;;;;;;;47.62;22.37;;;0.70;99.90;;;;;;1909353;74;21064;-72
2022/01/27 03:46:34;;;;;;;56.00;24.87;;;0.70;99.90;;;;;;1907680;75;21036;-71
2022/01/27 03:49:02;;;;;;;46.85;23.75;;;0.60;99.90;;;;;;1906157;75;21077;-72
2022/01/27 03:51:29;;;;;;;46.53;23.55;;;0.60;99.90;;;;;;1905095;75;21075;-72
2022/01/27 03:53:56;;;;;;;52.15;24.23;;;0.40;99.90;;;;;;1907186;75;21057;-71
2022/01/27 03:56:24;;;;;;;43.33;22.10;;;0.30;99.90;;;;;;1908149;75;21445;-71
2022/01/27 03:58:51;;;;;;;41.58;21.77;;;0.40;99.90;;;;;;1902960;75;21106;-71
2022/01/27 04:01:18;;;;;;;50.48;24.10;;;0.40;99.90;;;;;;1904798;75;21450;-71
2022/01/27 04:03:46;;;;;;;48.02;23.38;;;0.40;99.90;;;;;;1907275;75;21463;-71
2022/01/27 04:06:19;;;;;;;45.23;22.48;;;0.40;99.90;;;;;;1907008;75;21094;-72
2022/01/27 04:08:42;;;;;;;47.15;22.82;;;0.50;99.90;;;;;;1908138;75;21125;-72
2022/01/27 04:11:10;;;;;;;49.88;21.73;;;0.50;99.90;;;;;;1905671;75;21035;-72
2022/01/27 04:13:37;;;;;;;51.73;23.35;;;0.50;99.90;;;;;;1909519;75;21153;-72
2022/01/27 04:16:05;;;;;;;38.53;20.70;;;0.40;99.90;;;;;;1903531;75;21054;-72
2022/01/27 04:18:33;;;;;;;43.40;21.68;;;0.40;99.90;;;;;;1906923;75;21441;-72
2022/01/27 04:21:00;;;;;;;39.90;20.62;;;0.40;99.90;;;;;;1907815;75;21154;-72
2022/01/27 04:23:27;;;;;;;45.48;20.92;;;0.50;99.90;;;;;;1908823;75;21433;-73
2022/01/27 04:25:54;;;;;;;41.83;21.05;;;0.50;99.90;;;;;;1905125;75;21084;-72
2022/01/27 04:28:29;;;;;;;48.73;21.48;;;0.50;99.90;;;;;;1910082;75;21076;-73
2022/01/27 04:30:56;;;;;;;52.23;22.55;;;0.50;99.90;;;;;;1908729;75;21340;-73
2022/01/27 04:33:29;;;;;;;39.73;21.30;;;0.40;99.90;;;;;;1903330;75;21145;-73
2022/01/27 04:35:58;;;;;;;39.78;22.00;;;0.40;99.90;;;;;;1904993;75;21036;-72
2022/01/27 04:38:28;;;;;;;46.05;22.42;;;0.40;99.90;;;;;;1909596;75;21111;-72
2022/01/27 04:43:54;;;;;;;48.52;21.20;;;0.30;99.90;;;;;;1906978;75;21186;-72
2022/01/27 04:49:03;;;;;;;53.13;25.52;;;0.30;99.90;;;;;;1917246;73;21057;-73
2022/01/27 04:51:29;;;;;;;44.50;25.45;;;0.30;99.90;;;;;;1913633;73;21156;-73
2022/01/27 04:54:24;;;;;;;40.80;25.17;;;0.20;99.90;;;;;;1906685;75;21072;-70
2022/01/27 04:56:44;;;;;;;53.05;27.22;;;0.20;99.90;;;;;;1901860;75;21511;-71
2022/01/27 04:59:25;;;;;;;44.88;25.72;;;0.20;99.90;;;;;;1908660;75;21071;-71
2022/01/27 05:01:49;;;;;;;42.45;25.90;;;0.20;99.90;;;;;;1904060;74;21072;-72
2022/01/27 05:04:16;;;;;;;38.98;24.80;;;0.20;99.90;;;;;;1907978;74;21126;-71
2022/01/27 05:06:41;;;;;;;43.33;24.80;;;0.10;99.90;;;;;;1909097;74;21120;-71
2022/01/27 05:09:08;;;;;;;43.13;24.98;;;0.10;99.90;;;;;;1904478;75;21059;-71
2022/01/27 05:11:43;;;;;;;38.85;26.20;;;0.20;99.90;;;;;;1906960;75;21040;-70
2022/01/27 05:14:12;;;;;;;48.28;25.08;;;0.20;99.90;;;;;;1909531;75;21249;-71
2022/01/27 05:16:34;;;;;;;46.23;25.27;;;0.20;99.90;;;;;;1904444;75;21088;-72
2022/01/27 05:19:01;;;;;;;43.30;25.55;;;0.20;99.90;;;;;;1905949;75;21124;-71
2022/01/27 05:21:28;;;;;;;39.80;24.72;;;0.20;99.90;;;;;;1902850;75;21058;-70
2022/01/27 05:23:56;;;;;;;43.35;24.82;;;0.10;99.90;;;;;;1911738;73;21518;-72
2022/01/27 05:26:23;;;;;;;47.20;25.17;;;0.20;99.90;;;;;;1902922;75;21121;-71
2022/01/27 05:28:50;;;;;;;59.67;26.62;;;0.30;99.90;;;;;;1906247;75;21527;-71
2022/01/27 05:31:18;;;;;;;47.13;24.00;;;0.10;99.90;;;;;;1908830;75;21044;-71
2022/01/27 05:33:45;;;;;;;57.45;27.20;;;0.10;99.90;;;;;;1909012;75;21077;-72
2022/01/27 05:36:12;;;;;;;40.03;25.82;;;0.10;99.90;;;;;;1906768;75;21234;-72
2022/01/27 05:38:40;;;;;;;41.08;25.52;;;0.10;99.90;;;;;;1909155;75;21073;-74
2022/01/27 05:41:07;;;;;;;42.20;25.23;;;0.10;99.90;;;;;;1910062;75;21074;-74
2022/01/27 05:43:34;;;;;;;43.78;25.65;;;0.10;99.90;;;;;;1905638;75;21094;-74
2022/01/27 05:46:02;;;;;;;43.02;26.57;;;0.10;99.90;;;;;;1906591;75;21526;-73
2022/01/27 05:48:29;;;;;;;45.10;27.40;;;0.10;99.90;;;;;;1911248;75;21084;-74
2022/01/27 05:50:57;;;;;;;58.02;26.62;;;0.10;99.90;;;;;;1910228;75;21039;-74
2022/01/27 05:53:25;;;;;;;50.73;26.35;;;0.00;99.90;;;;;;1906924;75;21066;-74
2022/01/27 05:55:52;;;;;;;41.35;25.57;;;0.00;99.90;;;;;;1909979;75;21065;-74
2022/01/27 05:58:20;;;;;;;53.80;26.45;;;0.00;99.90;;;;;;1904730;75;21120;-74
2022/01/27 06:00:47;;;;;;;42.62;26.75;;;-0.10;99.90;;;;;;1908417;75;21037;-73
2022/01/27 06:03:14;;;;;;;52.03;25.92;;;-0.10;99.90;;;;;;1908734;75;21479;-74
2022/01/27 06:05:41;;;;;;;43.20;26.25;;;-0.10;99.90;;;;;;1905458;75;21110;-74
2022/01/27 06:08:09;;;;;;;47.80;26.82;;;-0.10;99.90;;;;;;1908692;75;21507;-74
2022/01/27 06:10:36;;;;;;;38.63;25.05;;;-0.10;99.90;;;;;;1907623;75;21047;-74
2022/01/27 06:13:03;;;;;;;46.05;26.33;;;0.00;99.90;;;;;;1903089;75;21454;-74
2022/01/27 06:15:31;;;;;;;45.40;26.85;;;-0.10;99.90;;;;;;1902870;75;21035;-74
2022/01/27 06:17:59;;;;;;;46.33;26.40;;;0.00;99.90;;;;;;1905629;75;21445;-73
2022/01/27 06:20:29;;;;;;;50.15;26.52;;;0.00;99.90;;;;;;1905246;75;21059;-73
2022/01/27 06:22:59;;;;;;;43.13;25.75;;;0.00;99.90;;;;;;1907162;74;21088;-74
2022/01/27 06:25:30;;;;;;;38.28;24.35;;;0.00;99.90;;;;;;1908856;75;21477;-73
2022/01/27 06:27:58;;;;;;;43.15;24.47;;;0.10;99.90;;;;;;1906660;75;21081;-73
2022/01/27 06:30:25;;;;;;;46.00;24.72;;;0.10;99.90;;;;;;1906763;75;21146;-74
2022/01/27 06:32:52;;;;;;;46.23;25.15;;;0.00;99.90;;;;;;1905526;75;21075;-75
2022/01/27 06:35:20;;;;;;;43.55;25.48;;;0.10;99.90;;;;;;1907542;75;21112;-74
2022/01/27 06:37:47;;;;;;;41.98;24.65;;;0.10;99.90;;;;;;1903174;75;21063;-74
2022/01/27 06:40:15;;;;;;;46.77;25.25;;;0.20;99.90;;;;;;1904579;75;21096;-74
2022/01/27 06:42:43;;;;;;;47.13;25.97;;;0.20;99.90;;;;;;1904763;75;21201;-74
2022/01/27 06:45:10;;;;;;;47.03;29.67;;;0.20;99.90;;;;;;1908746;75;21486;-73
2022/01/27 06:47:38;;;;;;;41.80;24.15;;;0.10;99.90;;;;;;1911259;75;21561;-73
2022/01/27 06:50:05;;;;;;;42.93;24.80;;;0.20;99.90;;;;;;1905826;75;21149;-72
2022/01/27 06:52:33;;;;;;;39.48;24.23;;;0.20;99.90;;;;;;1907543;75;21470;-74
2022/01/27 06:55:02;;;;;;;37.10;24.80;;;0.20;99.90;;;;;;1907420;75;21451;-73
2022/01/27 06:57:29;;;;;;;43.78;26.05;;;0.30;99.90;;;;;;1908735;75;21103;-74
2022/01/27 06:59:56;;;;;;;45.92;24.20;;;0.30;99.90;;;;;;1907106;75;21134;-74
2022/01/27 07:02:24;;;;;;;39.30;23.83;;;0.30;99.90;;;;;;1912496;75;21116;-74
2022/01/27 07:04:51;;;;;;;43.33;22.20;;;0.20;99.90;;;;;;1907796;75;21056;-74
2022/01/27 07:07:19;;;;;;;39.15;21.35;;;0.30;99.90;;;;;;1906700;75;21064;-73
2022/01/27 07:09:46;;;;;;;39.78;23.25;;;0.30;99.90;;;;;;1909307;75;21080;-74
2022/01/27 07:12:13;;;;;;;35.48;20.27;;;0.40;99.90;;;;;;1907891;75;21051;-74
2022/01/27 07:14:40;;;;;;;35.63;20.15;;;0.40;99.90;;;;;;1909640;75;21084;-76
2022/01/27 07:17:08;;;;;;;28.77;18.55;;;0.40;99.90;;;;;;1915718;75;21013;-75
2022/01/27 07:19:35;;;;;;;33.05;18.65;;;0.50;99.90;;;;;;1909829;75;21058;-74
2022/01/27 07:22:03;;;;;;;29.77;18.40;;;0.50;99.90;;;;;;1909108;75;21084;-77
2022/01/27 07:24:32;;;;;;;31.73;18.55;;;0.60;99.90;;;;;;1913030;75;21523;-76
2022/01/27 07:26:59;;;;;;;35.23;19.73;;;0.60;99.90;;;;;;1904907;75;21135;-74
2022/01/27 07:29:26;;;;;;;31.15;19.75;;;0.60;99.90;;;;;;1904222;75;21051;-76
2022/01/27 07:31:54;;;;;;;35.35;20.65;;;0.60;99.90;;;;;;1906917;75;21144;-75
2022/01/27 07:34:21;;;;;;;36.15;20.30;;;0.50;99.90;;;;;;1907269;75;21045;-76
2022/01/27 07:36:54;;;;;;;32.30;18.82;;;0.50;99.90;;;;;;1903098;75;21063;-76
2022/01/27 07:39:17;;;;;;;32.78;18.77;;;0.50;99.90;;;;;;1911291;74;21229;-76
2022/01/27 07:41:45;;;;;;;40.28;19.55;;;0.50;99.90;;;;;;1904077;75;21435;-75
2022/01/27 07:44:13;;;;;;;32.83;18.80;;;0.40;99.90;;;;;;1903181;75;21528;-76
2022/01/27 07:46:40;;;;;;;37.58;18.00;;;0.50;99.90;;;;;;1907377;75;21154;-76
2022/01/27 07:49:07;;;;;;;31.55;18.73;;;0.40;99.90;;;;;;1908212;75;21032;-75
2022/01/27 07:51:35;;;;;;;30.08;18.05;;;0.40;99.90;;;;;;1910992;75;21155;-76
2022/01/27 07:54:02;;;;;;;36.20;18.85;;;0.50;99.90;;;;;;1908776;75;21147;-76
2022/01/27 07:56:29;;;;;;;32.95;18.37;;;0.50;99.90;;;;;;1912646;75;21031;-76
2022/01/27 07:58:57;;;;;;;34.15;19.27;;;0.50;99.90;;;;;;1903135;75;21486;-76
2022/01/27 08:01:24;;;;;;;44.13;18.42;;;0.50;99.90;;;;;;1903298;75;21064;-76
2022/01/27 08:03:52;;;;;;;31.10;19.25;;;0.50;99.90;;;;;;1904872;75;21329;-75
2022/01/27 08:06:19;;;;;;;37.13;20.00;;;0.40;99.90;;;;;;1906857;75;21063;-76
2022/01/27 08:08:47;;;;;;;39.33;21.37;;;0.40;99.90;;;;;;1903127;73;21043;-76
2022/01/27 08:11:15;;;;;;;40.20;20.50;;;0.40;99.90;;;;;;1908238;75;21163;-76
2022/01/27 08:13:42;;;;;;;44.33;22.40;;;0.30;99.90;;;;;;1912155;75;21115;-76
2022/01/27 08:16:10;;;;;;;43.63;20.88;;;0.20;99.90;;;;;;1909375;75;21049;-75
2022/01/27 08:18:38;;;;;;;45.60;21.73;;;0.20;99.90;;;;;;1915076;73;21069;-76
2022/01/27 08:21:05;;;;;;;45.65;21.68;;;0.20;99.90;;;;;;1908481;75;21456;-77
2022/01/27 08:23:33;;;;;;;41.77;21.55;;;0.30;99.90;;;;;;1907637;75;21112;-76
2022/01/27 08:26:06;;;;;;;40.40;21.57;;;0.30;99.90;;;;;;1909373;75;21138;-76
2022/01/27 08:28:38;;;;;;;34.88;19.82;;;0.30;99.90;;;;;;1905075;74;21069;-75
2022/01/27 08:31:02;;;;;;;42.45;20.45;;;0.20;99.90;;;;;;1902813;75;21161;-76
2022/01/27 08:33:30;;;;;;;45.10;21.87;;;0.20;99.90;;;;;;1905102;75;21088;-76
2022/01/27 08:35:58;;;;;;;34.80;19.10;;;0.30;99.90;;;;;;1909844;75;21085;-75
2022/01/27 08:38:27;;;;;;;40.12;20.77;;;0.30;99.90;;;;;;1908049;75;21039;-76
2022/01/27 08:40:55;;;;;;;36.60;19.73;;;0.30;99.90;;;;;;1907974;75;21534;-75
2022/01/27 08:43:30;;;;;;;37.93;19.57;;;0.30;99.90;;;;;;1908204;75;21124;-76
2022/01/27 08:45:59;;;;;;;32.30;17.57;;;0.30;99.90;;;;;;1903593;75;21027;-75
2022/01/27 08:48:28;;;;;;;43.05;18.70;;;0.30;99.90;;;;;;1906032;75;21415;-76
2022/01/27 08:51:01;;;;;;;33.75;17.98;;;0.20;99.90;;;;;;1904212;75;21136;-76
2022/01/27 08:53:30;;;;;;;35.85;18.60;;;0.20;99.90;;;;;;1907630;75;21107;-76
2022/01/27 08:55:58;;;;;;;33.88;18.27;;;0.30;99.90;;;;;;1883492;75;21529;-76
2022/01/27 08:58:25;;;;;;;38.17;18.80;;;0.30;99.90;;;;;;1910172;75;21106;-75
2022/01/27 09:00:54;;;;;;;41.63;18.75;;;0.30;99.90;;;;;;1903627;75;21091;-76
2022/01/27 09:03:22;;;;;;;42.17;21.10;;;0.30;99.90;;;;;;1903301;75;21027;-77
2022/01/27 09:05:49;;;;;;;44.03;20.35;;;0.20;99.90;;;;;;1906570;75;21471;-77
2022/01/27 09:08:16;;;;;;;41.85;20.37;;;0.30;99.90;;;;;;1903958;75;21066;-76
2022/01/27 09:10:46;;;;;;;37.80;19.48;;;0.30;99.90;;;;;;1906235;75;21120;-77
2022/01/27 09:13:14;;;;;;;36.17;18.65;;;0.30;99.90;;;;;;1904812;73;21599;-77
2022/01/27 09:15:43;;;;;;;34.45;17.85;;;0.30;99.90;;;;;;1905654;75;21144;-77
2022/01/27 09:18:11;;;;;;;40.40;20.55;;;0.30;99.90;;;;;;1907873;75;21166;-77
2022/01/27 09:20:39;;;;;;;38.38;19.12;;;0.30;99.90;;;;;;1906011;75;21058;-76
2022/01/27 09:23:13;;;;;;;36.13;20.20;;;0.30;99.90;;;;;;1904074;75;21080;-76
2022/01/27 09:25:42;;;;;;;38.15;19.07;;;0.30;99.90;;;;;;1907861;75;21517;-77
2022/01/27 09:28:07;;;;;;;43.25;22.02;;;0.40;99.90;;;;;;1905515;74;21078;-76
2022/01/27 09:30:35;;;;;;;35.92;19.20;;;0.30;99.90;;;;;;1911881;75;21045;-75
2022/01/27 09:33:02;;;;;;;39.67;20.23;;;0.40;99.90;;;;;;1910919;75;21586;-77
2022/01/27 09:35:31;;;;;;;38.42;20.48;;;0.40;99.90;;;;;;1908403;75;21074;-77
2022/01/27 09:37:59;;;;;;;33.67;18.32;;;0.50;99.90;;;;;;1906876;75;21518;-77
2022/01/27 09:40:28;;;;;;;30.95;17.77;;;0.70;99.90;;;;;;1905739;75;21044;-77
2022/01/27 09:42:56;;;;;;;29.12;16.87;;;1.00;99.90;;;;;;1905367;74;21065;-77
2022/01/27 09:45:24;;;;;;;33.48;18.17;;;0.90;99.90;;;;;;1905172;75;21065;-75
2022/01/27 09:47:56;;;;;;;40.05;19.30;;;0.90;99.90;;;;;;1909207;75;21543;-75
2022/01/27 09:50:36;;;;;;;33.90;16.90;;;0.80;99.90;;;;;;1908069;74;21087;-75
2022/01/27 09:52:56;;;;;;;36.10;18.50;;;0.80;99.90;;;;;;1902161;75;21084;-75
2022/01/27 09:55:23;;;;;;;32.03;17.90;;;0.80;99.90;;;;;;1903258;75;21059;-76
2022/01/27 09:57:54;;;;;;;28.55;16.90;;;0.80;99.90;;;;;;1904399;75;21070;-75
2022/01/27 10:00:22;;;;;;;38.45;18.48;;;1.00;99.90;;;;;;1906364;75;21586;-75
2022/01/27 10:03:09;;;;;;;36.88;18.20;;;1.00;99.90;;;;;;1912183;75;21154;-74
2022/01/27 10:05:37;;;;;;;27.27;16.00;;;1.00;99.90;;;;;;1910427;75;21074;-74
2022/01/27 10:08:14;;;;;;;31.97;17.42;;;1.10;99.90;;;;;;1910361;75;21091;-75
2022/01/27 10:10:43;;;;;;;36.70;17.37;;;1.10;99.90;;;;;;1911671;75;21148;-75
2022/01/27 10:13:12;;;;;;;28.80;14.53;;;1.20;99.90;;;;;;1914752;75;21076;-75
2022/01/27 10:15:41;;;;;;;42.80;18.80;;;1.40;99.90;;;;;;1908639;75;21039;-76
2022/01/27 10:18:16;;;;;;;34.50;16.95;;;1.30;99.90;;;;;;1907363;75;20982;-74
2022/01/27 10:20:51;;;;;;;28.12;16.65;;;1.20;99.90;;;;;;1911333;75;21055;-75
2022/01/27 10:23:23;;;;;;;29.37;16.37;;;1.40;99.90;;;;;;1909206;75;21046;-75
2022/01/27 10:25:54;;;;;;;33.38;15.75;;;1.40;99.90;;;;;;1911399;75;21076;-76
2022/01/27 10:28:51;;;;;;;30.90;16.00;;;1.50;99.90;;;;;;1909090;75;21158;-76
2022/01/27 10:31:23;;;;;;;26.23;15.25;;;1.40;99.90;;;;;;1897606;75;21199;-76
2022/01/27 10:34:05;;;;;;;36.45;16.50;;;1.30;99.90;;;;;;1907824;74;21109;-75
2022/01/27 10:36:31;;;;;;;28.40;16.32;;;1.20;99.90;;;;;;1911987;75;21114;-73
2022/01/27 10:39:00;;;;;;;28.15;15.58;;;1.30;99.90;;;;;;1905773;75;21028;-75
2022/01/27 10:41:28;;;;;;;30.40;15.50;;;1.30;99.90;;;;;;1905552;75;21063;-75
2022/01/27 10:44:11;;;;;;;34.10;16.95;;;1.50;99.90;;;;;;1908352;75;21040;-74
2022/01/27 10:46:49;;;;;;;28.27;16.25;;;1.50;99.90;;;;;;1910620;75;21080;-74
2022/01/27 10:49:21;;;;;;;26.82;16.00;;;1.50;99.90;;;;;;1916058;75;21089;-75
2022/01/27 10:51:50;;;;;;;27.80;16.00;;;1.40;99.90;;;;;;1907844;75;21161;-75
2022/01/27 10:54:22;;;;;;;38.92;16.40;;;1.30;99.90;;;;;;1908928;75;21101;-74
2022/01/27 10:56:48;;;;;;;26.12;15.50;;;1.30;99.90;;;;;;1907196;75;21066;-74
2022/01/27 10:59:18;;;;;;;31.80;16.12;;;1.30;99.90;;;;;;1906903;75;21134;-74
2022/01/27 11:01:50;;;;;;;30.92;16.50;;;1.30;99.90;;;;;;1910819;74;21084;-76
2022/01/27 11:04:18;;;;;;;33.08;16.95;;;1.40;99.90;;;;;;1911213;75;21089;-75
2022/01/27 11:06:59;;;;;;;31.65;17.07;;;1.50;99.90;;;;;;1908459;75;21138;-76
2022/01/27 11:09:28;;;;;;;39.58;18.27;;;1.60;99.90;;;;;;1909134;75;21524;-76
2022/01/27 11:11:56;;;;;;;27.48;16.32;;;1.60;99.90;;;;;;1907276;75;21093;-76
2022/01/27 11:14:25;;;;;;;32.08;16.00;;;1.40;99.90;;;;;;1905623;75;21047;-75
2022/01/27 11:16:57;;;;;;;28.77;17.20;;;1.30;99.90;;;;;;1906766;75;21191;-76
2022/01/27 11:27:34;;;;;;;30.70;18.20;;;1.50;99.90;;;;;;1908807;75;21070;-76
2022/01/27 11:30:21;;;;;;;37.42;18.25;;;1.60;99.90;;;;;;1906564;75;21461;-76
2022/01/27 11:33:09;;;;;;;34.85;17.82;;;1.60;99.90;;;;;;1909369;75;21457;-76
2022/01/27 11:35:39;;;;;;;34.45;18.32;;;1.50;99.90;;;;;;1906380;75;21070;-76
2022/01/27 11:38:08;;;;;;;31.97;18.23;;;1.40;99.90;;;;;;1903154;75;21128;-76
2022/01/27 11:40:39;;;;;;;30.60;19.07;;;1.60;99.90;;;;;;1904805;75;21477;-75
2022/01/27 11:43:38;;;;;;;28.23;17.60;;;1.50;99.90;;;;;;1904260;75;21017;-76
2022/01/27 11:46:14;;;;;;;29.77;18.02;;;1.50;99.90;;;;;;1829067;77;21176;-76
2022/01/27 11:48:42;;;;;;;26.87;17.40;;;1.50;99.90;;;;;;1832874;77;21167;-77
2022/01/27 11:51:15;;;;;;;32.80;17.75;;;1.70;99.90;;;;;;1828188;78;21171;-77
2022/01/27 11:53:44;;;;;;;33.38;18.77;;;1.80;99.90;;;;;;1821283;77;21062;-72
2022/01/27 11:56:35;;;;;;;32.98;17.48;;;1.90;99.90;;;;;;1822156;78;21235;-76
2022/01/27 11:59:10;;;;;;;31.33;16.82;;;2.10;99.90;;;;;;1824050;78;21110;-77
2022/01/27 12:01:38;;;;;;;32.20;17.50;;;2.20;99.90;;;;;;1827562;78;21178;-76
2022/01/27 12:04:08;;;;;;;31.20;16.97;;;2.30;99.90;;;;;;1822063;77;21463;-75
2022/01/27 12:06:43;;;;;;;37.65;18.92;;;2.30;99.90;;;;;;1821854;78;21109;-77
2022/01/27 12:09:22;;;;;;;29.45;17.12;;;2.30;99.90;;;;;;1825676;78;21467;-75
2022/01/27 12:11:53;;;;;;;27.53;16.90;;;2.20;99.90;;;;;;1818910;78;21063;-73
2022/01/27 12:14:24;;;;;;;24.70;15.30;;;2.10;99.90;;;;;;1820549;78;21166;-73
2022/01/27 12:17:13;;;;;;;26.97;15.00;;;2.20;99.90;;;;;;1823483;77;21552;-76
2022/01/27 12:19:49;;;;;;;28.67;15.72;;;2.30;99.90;;;;;;1820890;77;21494;-75
2022/01/27 12:22:16;;;;;;;23.20;14.58;;;2.20;99.90;;;;;;1822116;77;21058;-74
2022/01/27 12:24:55;;;;;;;32.58;16.42;;;2.30;99.90;;;;;;1824038;78;21167;-76
2022/01/27 12:27:23;;;;;;;22.15;15.40;;;2.40;99.90;;;;;;1826476;78;21054;-74
2022/01/27 12:29:52;;;;;;;29.98;14.55;;;2.40;99.90;;;;;;1819963;77;21493;-75
2022/01/27 12:32:22;;;;;;;30.40;16.65;;;2.40;99.90;;;;;;1823330;77;21097;-73
2022/01/27 12:34:51;;;;;;;24.32;14.85;;;2.50;99.90;;;;;;1829509;78;21151;-74
2022/01/27 12:37:21;;;;;;;25.83;14.53;;;2.60;99.90;;;;;;1828953;78;21098;-74
2022/01/27 12:39:57;;;;;;;27.87;15.58;;;2.40;99.90;;;;;;1824736;77;21106;-75
2022/01/27 12:42:31;;;;;;;22.02;14.00;;;2.40;99.90;;;;;;1829265;77;21501;-73
2022/01/27 12:45:01;;;;;;;27.73;15.53;;;2.40;99.90;;;;;;1830482;77;21112;-76
2022/01/27 12:47:30;;;;;;;25.00;14.65;;;2.50;99.90;;;;;;1831852;77;21485;-74
2022/01/27 12:50:08;;;;;;;26.25;14.90;;;2.70;99.90;;;;;;1821925;78;21109;-75
2022/01/27 12:52:30;;;;;;;;;;;2.80;99.90;;;;;;1828739;78;21174;-75
2022/01/27 12:54:57;;;;;;;21.68;14.25;;;2.80;99.90;;;;;;1829728;77;20348;-75
2022/01/27 12:57:25;;;;;;;27.70;14.18;;;2.80;99.90;;;;;;1819940;78;21101;-75
2022/01/27 12:59:54;;;;;;;27.62;15.40;;;2.90;99.90;;;;;;1821757;78;21101;-74
2022/01/27 13:02:22;;;;;;;22.58;14.33;;;2.80;99.90;;;;;;1818524;79;21097;-73
2022/01/27 13:04:49;;;;;;;27.25;15.28;;;2.90;99.90;;;;;;1822064;78;21062;-74
2022/01/27 13:07:18;;;;;;;25.35;14.93;;;2.90;99.90;;;;;;1827545;77;21097;-74
2022/01/27 13:09:54;;;;;;;26.17;14.50;;;2.90;99.90;;;;;;1821667;78;21477;-75
2022/01/27 13:12:26;;;;;;;28.67;15.08;;;2.90;99.90;;;;;;1823909;78;21552;-74
2022/01/27 13:15:01;;;;;;;28.17;15.32;;;2.90;99.90;;;;;;1827017;78;21451;-77
2022/01/27 13:17:35;;;;;;;26.68;15.08;;;2.90;99.90;;;;;;1818631;78;21559;-76
2022/01/27 13:20:12;;;;;;;24.55;14.83;;;2.90;99.90;;;;;;1827378;78;21489;-76
2022/01/27 13:22:56;;;;;;;22.65;14.23;;;3.00;99.90;;;;;;1823116;77;21096;-77
2022/01/27 13:25:26;;;;;;;24.80;13.65;;;3.20;99.90;;;;;;1820880;77;21093;-78
2022/01/27 13:28:14;;;;;;;35.48;16.02;;;3.30;99.90;;;;;;1828170;76;21588;-78
2022/01/27 13:30:42;;;;;;;21.10;14.28;;;3.40;99.90;;;;;;1822537;76;21478;-78
2022/01/27 13:33:14;;;;;;;26.00;15.28;;;3.40;99.90;;;;;;1819604;78;21097;-76
2022/01/27 13:35:42;;;;;;;27.52;14.68;;;3.60;99.90;;;;;;1828966;78;21132;-75
2022/01/27 13:38:23;;;;;;;23.07;14.38;;;3.50;99.90;;;;;;1819149;78;21074;-77
2022/01/27 13:43:48;;;;;;;23.95;14.20;;;3.60;99.90;;;;;;1818896;78;21480;-76
2022/01/27 13:46:38;;;;;;;21.82;13.98;;;3.70;99.90;;;;;;1822804;78;21432;-76
2022/01/27 13:49:07;;;;;;;35.05;13.55;;;3.90;99.90;;;;;;1823514;78;21502;-75